createdAt,value
2022-08-22T00:02:09.020Z,5.50
2022-08-22T00:05:09.013Z,5.10
2022-08-22T00:08:03.133Z,5.30
2022-08-22T00:10:57.888Z,5.30
2022-08-22T00:14:01.289Z,5.00
2022-08-22T00:17:00.329Z,5.00
2022-08-22T00:19:49.016Z,5.40
2022-08-22T00:22:44.846Z,5.80
2022-08-22T00:25:41.914Z,5.50
2022-08-22T00:28:36.560Z,5.50
2022-08-22T00:31:15.403Z,4.90
2022-08-22T00:39:49.771Z,4.90
2022-08-22T00:42:55.393Z,5.30
2022-08-22T00:46:08.079Z,5.40
2022-08-22T00:49:10.598Z,6.10
2022-08-22T00:52:30.270Z,4.90
2022-08-22T00:55:37.719Z,4.70
2022-08-22T00:58:54.063Z,5.10
2022-08-22T01:01:57.158Z,5.70
2022-08-22T01:04:49.851Z,6.00
2022-08-22T01:07:52.099Z,6.30
2022-08-22T01:10:55.520Z,6.20
2022-08-22T01:13:59.673Z,5.60
2022-08-22T01:17:10.934Z,6.20
2022-08-22T01:20:42.060Z,6.50
2022-08-22T01:24:12.601Z,6.20
2022-08-22T01:27:24.724Z,6.70
2022-08-22T01:30:17.975Z,5.10
2022-08-22T01:33:32.673Z,6.10
2022-08-22T01:36:46.641Z,6.20
2022-08-22T01:40:02.683Z,6.40
2022-08-22T01:43:07.193Z,6.80
2022-08-22T01:46:21.497Z,6.20
2022-08-22T01:49:20.513Z,6.20
2022-08-22T01:52:19.552Z,6.30
2022-08-22T01:55:21.275Z,6.10
2022-08-22T01:58:18.554Z,6.70
2022-08-22T02:01:20.083Z,6.90
2022-08-22T02:04:17.166Z,5.90
2022-08-22T02:07:14.693Z,6.60
2022-08-22T02:10:14.715Z,6.80
2022-08-22T02:13:25.422Z,6.80
2022-08-22T02:16:25.679Z,7.00
2022-08-22T02:19:18.318Z,7.00
2022-08-22T02:22:24.320Z,7.50
2022-08-22T02:25:19.095Z,7.60
2022-08-22T02:28:12.797Z,7.80
2022-08-22T02:31:06.850Z,6.80
2022-08-22T02:33:58.869Z,7.60
2022-08-22T02:36:58.229Z,7.60
2022-08-22T02:39:54.095Z,8.10
2022-08-22T02:42:49.493Z,7.90
2022-08-22T02:45:46.618Z,6.70
2022-08-22T02:48:42.116Z,7.60
2022-08-22T02:51:40.956Z,7.40
2022-08-22T02:54:37.104Z,7.80
2022-08-22T02:57:39.371Z,8.50
2022-08-22T03:00:41.203Z,8.60
2022-08-22T03:03:37.248Z,7.30
2022-08-22T03:06:40.219Z,7.70
2022-08-22T03:09:25.146Z,7.70
2022-08-22T03:12:21.506Z,8.30
2022-08-22T03:15:21.427Z,7.90
2022-08-22T03:18:22.476Z,8.80
2022-08-22T03:21:18.442Z,7.70
2022-08-22T03:24:12.490Z,8.50
2022-08-22T03:27:05.761Z,7.60
2022-08-22T03:29:58.640Z,7.60
2022-08-22T03:32:49.196Z,8.20
2022-08-22T03:35:37.789Z,8.60
2022-08-22T03:38:39.850Z,7.90
2022-08-22T03:41:48.951Z,8.70
2022-08-22T03:45:19.185Z,7.40
2022-08-22T03:48:31.816Z,7.80
2022-08-22T03:51:47.419Z,8.00
2022-08-22T03:55:04.952Z,8.10
2022-08-22T03:58:27.905Z,8.80
2022-08-22T04:01:58.057Z,7.60
2022-08-22T04:05:14.655Z,8.30
2022-08-22T04:08:43.785Z,7.20
2022-08-22T04:12:10.275Z,7.40
2022-08-22T04:15:45.102Z,8.30
2022-08-22T04:19:08.005Z,8.30
2022-08-22T04:22:23.239Z,7.10
2022-08-22T04:25:17.255Z,8.00
2022-08-22T04:28:17.276Z,8.00
2022-08-22T04:31:11.350Z,7.70
2022-08-22T04:34:06.574Z,7.80
2022-08-22T04:37:00.025Z,8.50
2022-08-22T04:39:57.285Z,8.10
2022-08-22T04:42:53.328Z,7.90
2022-08-22T04:45:42.037Z,6.80
2022-08-22T04:48:29.196Z,7.50
2022-08-22T04:51:26.419Z,8.50
2022-08-22T04:54:38.865Z,8.00
2022-08-22T04:57:42.584Z,7.80
2022-08-22T05:00:41.462Z,8.00
2022-08-22T05:03:24.722Z,7.90
2022-08-22T05:06:06.192Z,8.00
2022-08-22T05:08:58.902Z,7.80
2022-08-22T05:11:30.475Z,7.90
2022-08-22T05:14:28.759Z,7.80
2022-08-22T05:17:22.960Z,7.90
2022-08-22T05:20:17.860Z,7.90
2022-08-22T05:23:18.685Z,7.80
2022-08-22T05:26:10.549Z,7.60
2022-08-22T05:29:04.056Z,7.70
2022-08-22T05:31:57.557Z,7.40
2022-08-22T05:34:48.272Z,7.50
2022-08-22T05:37:40.276Z,8.00
2022-08-22T05:40:31.423Z,7.60
2022-08-22T05:43:23.103Z,7.60
2022-08-22T05:46:20.228Z,7.10
2022-08-22T05:49:20.584Z,6.70
2022-08-22T05:52:19.519Z,7.30
2022-08-22T05:55:22.699Z,7.10
2022-08-22T05:58:30.113Z,6.80
2022-08-22T06:01:28.952Z,6.70
2022-08-22T06:04:26.192Z,7.70
2022-08-22T06:07:21.572Z,7.30
2022-08-22T06:10:21.243Z,7.20
2022-08-22T06:13:11.474Z,6.80
2022-08-22T06:16:08.440Z,6.90
2022-08-22T06:18:59.189Z,7.50
2022-08-22T06:21:50.789Z,6.60
2022-08-22T06:24:41.827Z,6.40
2022-08-22T06:27:32.125Z,6.90
2022-08-22T06:30:24.173Z,6.00
2022-08-22T06:33:21.615Z,6.00
2022-08-22T06:36:31.146Z,6.10
2022-08-22T06:39:23.433Z,6.20
2022-08-22T06:42:17.215Z,6.80
2022-08-22T06:45:10.791Z,6.50
2022-08-22T06:48:16.762Z,6.60
2022-08-22T06:51:08.482Z,6.60
2022-08-22T06:54:03.068Z,6.40
2022-08-22T06:56:54.864Z,6.20
2022-08-22T06:59:44.344Z,6.40
2022-08-22T07:02:40.086Z,5.90
2022-08-22T07:05:36.032Z,5.90
2022-08-22T07:08:27.126Z,6.50
2022-08-22T07:11:21.267Z,5.80
2022-08-22T07:14:12.080Z,6.20
2022-08-22T07:17:03.081Z,7.00
2022-08-22T07:19:59.630Z,7.00
2022-08-22T07:22:54.569Z,6.20
2022-08-22T07:25:53.548Z,6.00
2022-08-22T07:28:51.471Z,6.00
2022-08-22T07:31:57.978Z,6.20
2022-08-22T07:35:08.924Z,6.00
2022-08-22T07:38:13.315Z,6.20
2022-08-22T07:41:12.821Z,6.00
2022-08-22T07:44:13.783Z,6.10
2022-08-22T07:47:00.548Z,6.50
2022-08-22T07:49:50.077Z,5.60
2022-08-22T07:52:44.194Z,6.20
2022-08-22T07:55:33.878Z,5.90
2022-08-22T07:58:35.479Z,6.40
2022-08-22T08:01:26.135Z,6.50
2022-08-22T08:04:21.149Z,5.80
2022-08-22T10:38:31.787Z,5.30
2022-08-22T10:41:32.425Z,5.40
2022-08-22T10:44:30.231Z,5.40
2022-08-22T10:47:25.638Z,5.20
2022-08-22T10:50:18.287Z,5.40
2022-08-22T10:53:29.845Z,5.30
2022-08-22T10:56:30.082Z,5.10
2022-08-22T10:59:35.189Z,5.20
2022-08-22T11:02:44.739Z,5.10
2022-08-22T11:05:41.307Z,5.40
2022-08-22T11:09:14.175Z,4.80
2022-08-22T11:12:10.501Z,5.00
2022-08-22T11:15:07.182Z,4.80
2022-08-22T11:18:20.582Z,4.40
2022-08-22T11:21:18.152Z,4.40
2022-08-22T11:24:34.869Z,4.70
2022-08-22T11:27:39.710Z,4.30
2022-08-22T11:30:46.517Z,4.70
2022-08-22T11:33:47.191Z,4.50
2022-08-22T11:36:46.563Z,4.70
2022-08-22T11:39:42.540Z,4.90
2022-08-22T11:42:47.377Z,4.80
2022-08-22T11:45:51.610Z,4.60
2022-08-22T11:48:52.842Z,5.10
2022-08-22T11:51:58.618Z,5.30
2022-08-22T11:55:05.127Z,4.80
2022-08-22T12:00:55.448Z,5.10
2022-08-22T12:03:58.965Z,4.90
2022-08-22T12:07:01.799Z,5.10
2022-08-22T12:09:55.156Z,4.90
2022-08-22T12:13:00.683Z,4.90
2022-08-22T12:18:55.520Z,4.60
2022-08-22T12:22:06.372Z,5.20
2022-08-22T12:25:08.467Z,5.30
2022-08-22T12:28:15.842Z,4.80
2022-08-22T12:31:17.146Z,5.00
2022-08-22T12:34:15.635Z,5.30
2022-08-22T12:37:18.483Z,5.00
2022-08-22T12:40:27.347Z,5.60
2022-08-22T12:46:37.217Z,5.50
2022-08-22T12:49:52.281Z,5.30
2022-08-22T12:53:00.579Z,5.20
2022-08-22T12:56:10.288Z,5.10
2022-08-22T12:59:23.379Z,5.90
2022-08-22T13:02:19.578Z,5.70
2022-08-22T13:05:19.823Z,5.50
2022-08-22T13:08:04.624Z,5.80
2022-08-22T13:11:01.215Z,5.50
2022-08-22T13:13:56.783Z,5.40
2022-08-22T13:16:51.131Z,5.40
2022-08-22T13:19:53.083Z,5.20
2022-08-22T13:22:45.639Z,5.10
2022-08-22T13:26:07.969Z,5.50
2022-08-22T13:29:24.051Z,5.30
2022-08-22T13:32:20.612Z,5.10
2022-08-22T13:35:24.422Z,5.10
2022-08-22T13:38:25.849Z,5.30
2022-08-22T13:41:21.568Z,5.30
2022-08-22T13:44:17.532Z,5.00
2022-08-22T13:47:14.170Z,5.20
2022-08-22T13:50:13.946Z,4.50
2022-08-22T13:53:09.125Z,5.00
2022-08-22T13:56:15.582Z,4.80
2022-08-22T13:59:00.096Z,4.60
2022-08-22T14:01:57.073Z,4.30
2022-08-22T14:04:50.188Z,4.70
2022-08-22T14:11:41.975Z,4.90
2022-08-22T14:14:11.115Z,5.00
2022-08-22T14:16:50.130Z,5.30
2022-08-22T14:19:30.467Z,5.60
2022-08-22T14:22:07.369Z,4.50
2022-08-22T14:24:47.985Z,5.30
2022-08-22T14:27:30.415Z,4.90
2022-08-22T14:30:03.615Z,5.60
2022-08-22T14:32:47.485Z,5.40
2022-08-22T14:35:34.830Z,4.50
2022-08-22T14:38:29.737Z,5.10
2022-08-22T14:41:03.686Z,4.80
2022-08-22T14:43:47.938Z,5.00
2022-08-22T14:46:23.507Z,5.10
2022-08-22T14:49:26.597Z,5.10
2022-08-22T14:52:05.989Z,5.70
2022-08-22T14:54:35.162Z,5.40
2022-08-22T14:57:10.138Z,5.30
2022-08-22T14:59:46.373Z,5.10
2022-08-22T15:02:28.026Z,5.20
2022-08-22T15:05:00.923Z,5.10
2022-08-22T15:07:33.198Z,4.90
2022-08-22T15:10:07.420Z,5.50
2022-08-22T15:12:48.981Z,5.20
2022-08-22T15:15:32.109Z,5.50
2022-08-22T15:18:00.689Z,5.60
2022-08-22T15:20:36.282Z,5.90
2022-08-22T15:23:14.885Z,5.40
2022-08-22T15:25:47.031Z,5.60
2022-08-22T15:28:20.338Z,6.00
2022-08-22T15:31:03.576Z,5.80
2022-08-22T15:33:38.535Z,5.80
2022-08-22T15:36:15.856Z,5.70
2022-08-22T15:38:47.893Z,6.40
2022-08-22T15:41:44.879Z,5.70
2022-08-22T15:44:32.336Z,6.30
2022-08-22T15:47:23.775Z,6.30
2022-08-22T15:49:56.400Z,5.80
2022-08-22T15:52:29.358Z,5.80
2022-08-22T15:55:21.068Z,6.20
2022-08-22T15:57:59.835Z,6.00
2022-08-22T16:00:36.246Z,5.90
2022-08-22T16:03:24.570Z,6.10
2022-08-22T16:05:55.983Z,5.90
2022-08-22T16:08:32.614Z,5.60
2022-08-22T16:11:23.776Z,6.30
2022-08-22T16:14:18.157Z,5.90
2022-08-22T16:16:56.084Z,5.90
2022-08-22T16:19:26.714Z,5.90
2022-08-22T16:22:18.703Z,6.10
2022-08-22T16:25:02.876Z,5.90
2022-08-22T16:27:32.204Z,5.90
2022-08-22T16:30:10.970Z,6.20
2022-08-22T16:32:49.819Z,5.80
2022-08-22T16:35:50.387Z,6.00
2022-08-22T16:38:32.630Z,5.70
2022-08-22T16:41:04.162Z,6.60
2022-08-22T16:43:33.199Z,6.40
2022-08-22T16:46:27.857Z,6.10
2022-08-22T16:49:03.958Z,6.50
2022-08-22T16:51:32.616Z,6.40
2022-08-22T16:54:32.726Z,6.20
2022-08-22T16:57:15.180Z,6.50
2022-08-22T16:59:56.495Z,5.80
2022-08-22T17:02:58.363Z,5.90
2022-08-22T17:05:40.682Z,6.00
2022-08-22T17:08:32.632Z,6.30
2022-08-22T17:11:13.898Z,6.20
2022-08-22T17:14:08.850Z,6.20
2022-08-22T17:16:54.594Z,6.30
2022-08-22T17:19:42.766Z,5.50
2022-08-22T17:24:51.250Z,6.20
2022-08-22T17:27:28.311Z,6.10
2022-08-22T17:30:06.478Z,5.90
2022-08-22T17:32:59.223Z,6.20
2022-08-22T17:35:44.458Z,6.40
2022-08-22T17:38:28.477Z,6.60
2022-08-22T17:41:12.220Z,6.40
2022-08-22T17:43:54.419Z,6.30
2022-08-22T17:46:35.605Z,6.70
2022-08-22T17:49:16.057Z,6.10
2022-08-22T17:51:49.884Z,6.40
2022-08-22T17:54:24.740Z,6.50
2022-08-22T17:57:05.702Z,6.10
2022-08-22T17:59:45.326Z,6.20
2022-08-22T18:02:18.285Z,6.60
2022-08-22T18:04:58.202Z,6.20
2022-08-22T18:07:37.400Z,6.90
2022-08-22T18:10:13.990Z,6.70
2022-08-22T18:12:51.728Z,6.60
2022-08-22T18:15:25.446Z,6.70
2022-08-22T18:18:01.103Z,6.80
2022-08-22T18:20:34.716Z,6.80
2022-08-22T18:23:21.720Z,6.30
2022-08-22T18:26:18.321Z,6.70
2022-08-22T18:28:54.348Z,6.70
2022-08-22T18:31:38.459Z,7.20
2022-08-22T18:34:17.223Z,7.20
2022-08-22T18:36:55.346Z,7.10
2022-08-22T18:39:29.486Z,6.40
2022-08-22T18:42:04.976Z,6.80
2022-08-22T18:47:14.947Z,7.70
2022-08-22T18:49:54.232Z,7.70
2022-08-22T18:52:35.204Z,8.40
2022-08-22T18:55:22.786Z,7.20
2022-08-22T18:58:12.482Z,6.90
2022-08-22T19:00:54.716Z,7.70
2022-08-22T19:03:52.445Z,7.70
2022-08-22T19:06:45.631Z,7.80
2022-08-22T19:09:58.856Z,7.00
2022-08-22T19:12:43.407Z,7.60
2022-08-22T19:15:26.873Z,7.50
2022-08-22T19:18:25.571Z,7.20
2022-08-22T19:21:40.011Z,6.90
2022-08-22T19:24:11.272Z,7.10
2022-08-22T19:26:47.207Z,7.20
2022-08-22T19:29:55.943Z,7.40
2022-08-22T19:32:58.759Z,7.30
2022-08-22T19:35:35.806Z,7.40
2022-08-22T19:38:06.192Z,8.10
2022-08-22T19:40:53.972Z,6.50
2022-08-22T19:43:34.246Z,7.00
2022-08-22T19:46:06.194Z,7.70
2022-08-22T19:48:44.447Z,8.00
2022-08-22T19:51:25.826Z,8.60
2022-08-22T19:54:16.647Z,8.00
2022-08-22T19:57:01.004Z,7.50
2022-08-22T19:59:40.945Z,7.80
2022-08-22T20:02:31.429Z,7.40
2022-08-22T20:05:20.755Z,7.90
2022-08-22T20:08:01.399Z,8.00
2022-08-22T20:10:41.884Z,8.20
2022-08-22T20:13:20.067Z,7.50
2022-08-22T20:16:04.893Z,6.70
2022-08-22T20:19:05.972Z,7.50
2022-08-22T20:21:48.962Z,7.80
2022-08-22T20:24:27.415Z,7.60
2022-08-22T20:27:13.367Z,8.00
2022-08-22T20:29:51.375Z,9.40
2022-08-22T20:32:22.490Z,8.50
2022-08-22T20:34:58.604Z,7.70
2022-08-22T20:38:04.831Z,7.90
2022-08-22T20:40:56.737Z,7.70
2022-08-22T20:43:30.177Z,7.80
2022-08-22T20:46:12.857Z,8.60
2022-08-22T20:48:44.711Z,8.20
2022-08-22T20:51:17.481Z,8.00
2022-08-22T20:53:53.171Z,8.40
2022-08-22T20:56:37.708Z,8.70
2022-08-22T20:59:26.876Z,8.30
2022-08-22T21:04:32.621Z,8.40
2022-08-22T21:07:01.922Z,8.40
2022-08-22T21:09:48.951Z,8.60
2022-08-22T21:12:17.624Z,7.60
2022-08-22T21:14:46.353Z,8.30
2022-08-22T21:17:20.966Z,9.10
2022-08-22T21:19:49.769Z,8.30
2022-08-22T21:22:25.370Z,8.10
2022-08-22T21:24:58.570Z,9.00
2022-08-22T21:27:29.584Z,8.40
2022-08-22T21:30:02.470Z,8.50
2022-08-22T21:32:34.480Z,8.50
2022-08-22T21:35:06.189Z,8.30
2022-08-22T21:37:39.332Z,8.80
2022-08-22T21:40:15.381Z,8.90
2022-08-22T21:42:59.161Z,9.10
2022-08-22T21:45:30.818Z,8.00
2022-08-22T21:48:02.826Z,8.40
2022-08-22T21:50:37.611Z,9.70
2022-08-22T21:53:12.135Z,9.20
2022-08-22T21:55:46.080Z,9.10
2022-08-22T21:58:36.029Z,8.90
2022-08-22T22:01:27.682Z,7.60
2022-08-22T22:03:58.018Z,8.70
2022-08-22T22:06:26.958Z,9.20
2022-08-22T22:08:55.561Z,8.90
2022-08-22T22:11:24.200Z,8.40
2022-08-22T22:13:52.988Z,8.60
2022-08-22T22:16:25.349Z,8.30
2022-08-22T22:18:53.969Z,9.00
2022-08-22T22:21:22.457Z,8.50
2022-08-22T22:23:50.778Z,8.30
2022-08-22T22:26:20.544Z,9.50
2022-08-22T22:28:49.656Z,8.50
2022-08-22T22:31:18.622Z,8.70
2022-08-22T22:33:47.211Z,9.00
2022-08-22T22:36:19.501Z,9.00
2022-08-22T22:38:48.952Z,7.90
2022-08-22T22:41:24.637Z,8.60
2022-08-22T22:43:53.804Z,8.90
2022-08-22T22:46:22.900Z,9.50
2022-08-22T22:48:51.238Z,9.10
2022-08-22T22:51:20.232Z,9.10
2022-08-22T22:53:49.086Z,8.90
2022-08-22T22:56:21.445Z,9.20
2022-08-22T22:58:50.564Z,9.70
2022-08-22T23:01:27.855Z,10.00
2022-08-22T23:04:03.216Z,9.20
2022-08-22T23:06:35.335Z,9.30
2022-08-22T23:09:04.302Z,7.70
2022-08-22T23:11:32.709Z,8.20
2022-08-22T23:14:02.233Z,9.40
2022-08-22T23:16:35.172Z,9.50
2022-08-22T23:19:09.429Z,9.50
2022-08-22T23:21:38.299Z,9.30
2022-08-22T23:24:07.469Z,8.80
2022-08-22T23:26:36.878Z,8.70
2022-08-22T23:29:06.088Z,9.00
2022-08-22T23:31:36.666Z,8.80
2022-08-22T23:34:06.959Z,10.10
2022-08-22T23:36:35.977Z,9.90
2022-08-22T23:39:05.865Z,9.10
2022-08-22T23:41:34.665Z,8.80
2022-08-22T23:44:06.105Z,9.70
2022-08-22T23:46:34.841Z,9.50
2022-08-22T23:49:04.466Z,9.30
2022-08-22T23:51:33.535Z,9.20
2022-08-22T23:54:02.933Z,10.20
2022-08-22T23:56:35.080Z,10.20
2022-08-22T23:59:07.709Z,9.90
